Time;durP1;ratioP1;P1;durP2;ratioP2;P2;SDS_P1;SDS_P2;PMS_P1;PMS_P2;Temp;Humidity;BMP_temperature;BMP_pressure;BME280_temperature;BME280_humidity;BME280_pressure;Samples;Min_cycle;Max_cycle;Signal;HPM_P1;HPM_P2
2022/03/22 00:00:05;;;;;;;26.50;10.75;;;;;;;0.12;60.48;96102.91;5077478;28;20230;-79
2022/03/22 00:02:32;;;;;;;28.98;11.75;;;;;;;0.17;59.59;96089.69;5078423;28;20217;-79
2022/03/22 00:04:59;;;;;;;29.25;11.90;;;;;;;0.15;61.68;96091.78;5077153;28;20590;-79
2022/03/22 00:07:27;;;;;;;33.92;11.65;;;;;;;0.43;61.27;96094.66;5090847;28;20592;-80
2022/03/22 00:09:55;;;;;;;25.58;11.05;;;;;;;0.67;61.47;96096.34;5077240;28;20225;-79
2022/03/22 00:12:23;;;;;;;34.85;13.20;;;;;;;0.65;59.11;96098.44;5083156;28;20260;-79
2022/03/22 00:14:50;;;;;;;33.60;14.80;;;;;;;0.50;58.93;96100.72;5084000;28;20321;-79
2022/03/22 00:17:17;;;;;;;31.02;13.80;;;;;;;0.20;60.77;96094.59;5078762;28;20213;-79
2022/03/22 00:19:44;;;;;;;32.95;12.98;;;;;;;0.06;60.68;96093.13;5077139;28;20413;-79
2022/03/22 00:22:11;;;;;;;32.67;13.27;;;;;;;0.13;61.28;96099.22;5082243;28;20219;-79
2022/03/22 00:24:38;;;;;;;30.33;12.07;;;;;;;0.41;62.06;96082.63;5068869;28;20206;-80
2022/03/22 00:27:07;;;;;;;25.77;11.70;;;;;;;0.56;60.66;96086.44;5067781;28;20264;-80
2022/03/22 00:29:34;;;;;;;30.48;11.57;;;;;;;0.75;59.89;96083.72;5077297;28;20207;-80
2022/03/22 00:32:02;;;;;;;29.95;11.15;;;;;;;0.89;59.88;96077.13;5081313;28;20207;-81
2022/03/22 00:34:29;;;;;;;31.55;12.48;;;;;;;0.79;60.34;96066.22;5073095;28;20231;-80
2022/03/22 00:36:58;;;;;;;24.65;9.55;;;;;;;0.81;59.64;96090.81;5083895;28;20248;-81
2022/03/22 00:39:25;;;;;;;28.52;10.60;;;;;;;0.69;58.28;96075.56;5090840;28;20206;-80
2022/03/22 00:41:53;;;;;;;30.50;13.85;;;;;;;0.27;59.33;96080.13;5082488;28;20578;-79
2022/03/22 00:44:22;;;;;;;25.17;12.13;;;;;;;0.21;61.38;96082.88;5087528;28;20199;-80
2022/03/22 00:46:50;;;;;;;26.42;12.02;;;;;;;0.40;60.53;96075.66;5074250;28;20229;-81
2022/03/22 00:49:17;;;;;;;26.88;10.45;;;;;;;0.57;60.02;96074.75;5087430;28;20199;-80
2022/03/22 00:51:44;;;;;;;19.73;8.32;;;;;;;0.81;57.96;96061.47;5086125;28;20198;-81
2022/03/22 00:54:11;;;;;;;22.73;9.90;;;;;;;0.81;57.93;96062.28;5080069;28;20229;-81
2022/03/22 00:56:38;;;;;;;24.70;11.50;;;;;;;0.81;56.93;96064.13;5081192;28;20210;-81
2022/03/22 01:01:51;;;;;;;18.92;7.80;;;;;;;0.77;56.27;96079.78;5079876;28;20198;-81
2022/03/22 01:04:18;;;;;;;22.88;10.40;;;;;;;0.74;57.02;96076.75;5085221;28;20227;-80
2022/03/22 01:06:45;;;;;;;27.40;9.90;;;;;;;0.70;60.34;96053.19;5086909;28;20209;-81
2022/03/22 01:09:12;;;;;;;22.48;9.57;;;;;;;1.02;59.04;96076.88;5073578;28;20585;-81
2022/03/22 01:11:39;;;;;;;24.35;10.82;;;;;;;1.30;60.77;96071.66;5075099;28;20229;-81
2022/03/22 01:14:07;;;;;;;25.10;12.32;;;;;;;1.48;57.03;96065.38;5076465;28;20310;-81
2022/03/22 01:16:34;;;;;;;20.10;9.38;;;;;;;1.51;55.62;96058.72;5083947;28;20289;-81
2022/03/22 01:19:02;;;;;;;21.58;10.43;;;;;;;1.61;55.29;96058.97;5084534;28;20199;-81
2022/03/22 01:21:29;;;;;;;23.65;10.10;;;;;;;1.63;56.08;96067.56;5075924;28;20199;-82
2022/03/22 01:23:58;;;;;;;22.63;9.85;;;;;;;1.69;56.74;96053.25;5092550;28;20199;-81
2022/03/22 01:26:25;;;;;;;26.05;12.68;;;;;;;1.84;56.12;96042.88;5079870;28;20289;-82
2022/03/22 01:28:52;;;;;;;19.55;9.68;;;;;;;1.76;55.13;96048.59;5093773;28;20232;-81
2022/03/22 01:31:19;;;;;;;21.38;9.85;;;;;;;1.67;54.94;96041.97;5079747;28;20206;-81
2022/03/22 01:33:46;;;;;;;25.70;9.90;;;;;;;1.54;56.47;96052.94;5082613;28;20223;-81
2022/03/22 01:36:14;;;;;;;24.67;9.80;;;;;;;1.62;55.68;96039.22;5086672;28;20195;-81
2022/03/22 01:38:42;;;;;;;23.88;10.15;;;;;;;1.52;55.34;96039.81;5083975;28;20198;-81
2022/03/22 01:41:08;;;;;;;22.80;10.18;;;;;;;1.48;55.91;96043.22;5057947;28;20231;-80
2022/03/22 01:43:35;;;;;;;21.45;9.77;;;;;;;1.42;56.94;96039.59;5077352;28;20213;-80
2022/03/22 01:46:03;;;;;;;19.30;9.77;;;;;;;1.37;56.98;96048.31;5079081;28;20222;-81
2022/03/22 01:48:30;;;;;;;24.10;8.68;;;;;;;1.45;56.63;96035.66;5079729;28;20203;-81
2022/03/22 01:50:57;;;;;;;17.92;8.77;;;;;;;1.45;55.06;96030.31;5085934;28;20247;-81
2022/03/22 01:53:26;;;;;;;21.70;8.82;;;;;;;1.50;55.55;96033.09;5085092;28;20217;-80
2022/03/22 01:55:53;;;;;;;20.67;8.65;;;;;;;1.61;55.12;96032.25;5079252;28;20226;-80
2022/03/22 01:58:20;;;;;;;18.48;8.05;;;;;;;1.56;55.44;96035.63;5079804;28;20198;-81
2022/03/22 02:05:51;;;;;;;15.02;7.30;;;;;;;1.53;55.19;96043.28;5085824;28;20723;-80
2022/03/22 02:06:23;;;;;;;17.98;7.93;;;;;;;1.30;55.67;96047.63;5084397;28;20248;-81
2022/03/22 02:08:51;;;;;;;21.55;8.10;;;;;;;1.39;60.25;96030.19;5078964;28;20226;-80
2022/03/22 02:11:18;;;;;;;20.38;9.98;;;;;;;1.50;58.61;96035.78;5079809;28;20202;-80
2022/03/22 02:13:45;;;;;;;16.60;7.43;;;;;;;1.50;56.09;96028.56;5085253;28;20218;-80
2022/03/22 02:16:12;;;;;;;16.80;7.80;;;;;;;1.35;56.58;96034.41;5085450;28;20530;-80
2022/03/22 02:18:40;;;;;;;17.88;8.57;;;;;;;1.04;57.62;96022.25;5078648;28;20202;-80
2022/03/22 02:21:09;;;;;;;13.98;7.65;;;;;;;1.06;58.69;96036.19;5078506;28;20206;-80
2022/03/22 02:23:49;;;;;;;18.23;8.43;;;;;;;1.21;58.38;96025.03;5059276;28;20207;-80
2022/03/22 02:26:16;;;;;;;20.20;7.93;;;;;;;1.26;58.05;96025.13;5085532;28;20213;-81
2022/03/22 02:28:43;;;;;;;21.95;9.07;;;;;;;1.29;56.79;96024.66;5080906;28;20203;-81
2022/03/22 02:31:10;;;;;;;16.63;6.72;;;;;;;1.26;56.67;96019.78;5078428;28;20202;-81
2022/03/22 02:33:41;;;;;;;13.32;7.28;;;;;;;1.30;56.58;96014.78;5091938;28;20222;-80
2022/03/22 02:36:08;;;;;;;17.98;7.70;;;;;;;1.25;57.54;96026.16;5078522;28;20233;-80
2022/03/22 02:38:35;;;;;;;19.85;7.35;;;;;;;1.13;57.32;96025.38;5082146;28;20210;-81
2022/03/22 02:41:04;;;;;;;14.48;7.65;;;;;;;0.66;59.18;96025.41;5083882;28;20202;-80
2022/03/22 02:43:31;;;;;;;17.05;8.70;;;;;;;0.64;63.72;96019.47;5083088;28;20284;-81
2022/03/22 02:45:58;;;;;;;14.23;7.72;;;;;;;0.78;61.77;96016.59;5077945;28;20226;-80
2022/03/22 02:48:24;;;;;;;17.70;7.68;;;;;;;0.77;60.19;96023.78;5080339;28;20209;-80
2022/03/22 02:50:52;;;;;;;17.83;8.48;;;;;;;0.56;60.23;96027.81;5085125;28;20238;-80
2022/03/22 02:53:19;;;;;;;14.52;7.75;;;;;;;0.69;62.63;96026.75;5083370;28;20221;-80
2022/03/22 02:55:46;;;;;;;17.50;7.68;;;;;;;0.74;60.21;96031.41;5078730;28;20288;-80
2022/03/22 02:58:14;;;;;;;19.83;9.60;;;;;;;0.38;61.62;96027.91;5079078;28;20206;-80
2022/03/22 03:00:41;;;;;;;14.30;7.75;;;;;;;0.25;63.11;96028.94;5090849;28;20207;-80
2022/03/22 03:03:08;;;;;;;15.23;6.70;;;;;;;0.40;65.33;96036.50;5079428;28;20207;-80
2022/03/22 03:05:35;;;;;;;12.82;6.82;;;;;;;0.38;61.99;96037.75;5084850;28;20234;-80
2022/03/22 03:08:02;;;;;;;18.40;7.30;;;;;;;0.22;61.97;96032.03;5083887;28;20684;-80
2022/03/22 03:10:29;;;;;;;20.30;8.57;;;;;;;0.10;62.38;96033.88;5077931;28;20205;-80
2022/03/22 03:13:00;;;;;;;17.73;8.00;;;;;;;0.24;65.08;96027.31;5078443;28;20207;-80
2022/03/22 03:15:29;;;;;;;22.65;7.75;;;;;;;0.15;62.27;96025.16;5084519;28;20321;-80
2022/03/22 03:17:55;;;;;;;16.00;8.02;;;;;;;0.23;64.35;96031.00;5071706;28;20207;-80
2022/03/22 03:20:22;;;;;;;18.38;7.57;;;;;;;0.23;63.31;96030.19;5083718;28;20282;-81
2022/03/22 03:22:49;;;;;;;17.05;8.13;;;;;;;0.15;62.21;96027.84;5084284;28;20632;-80
2022/03/22 03:25:18;;;;;;;16.98;7.60;;;;;;;-0.09;63.74;96026.97;5083259;28;20226;-81
2022/03/22 03:27:45;;;;;;;17.90;8.27;;;;;;;-0.05;64.51;96031.63;5071975;28;20649;-80
2022/03/22 03:30:12;;;;;;;20.17;7.82;;;;;;;-0.23;62.78;96026.31;5082919;28;20203;-81
2022/03/22 03:32:41;;;;;;;11.85;5.40;;;;;;;-0.40;63.96;96020.00;5084418;28;20229;-80
2022/03/22 03:35:08;;;;;;;13.02;7.05;;;;;;;-0.58;63.67;96022.69;5080335;28;20225;-81
2022/03/22 03:37:36;;;;;;;14.35;6.45;;;;;;;-0.56;63.98;96036.59;5074991;28;20214;-80
2022/03/22 03:40:07;;;;;;;22.10;8.63;;;;;;;-0.69;65.09;96042.06;5080058;28;20194;-81
2022/03/22 03:42:39;;;;;;;16.60;7.05;;;;;;;-0.49;68.86;96032.00;5064351;28;20198;-81
2022/03/22 03:47:52;;;;;;;13.63;6.78;;;;;;;-0.98;66.03;96044.41;5059770;28;20699;-81
2022/03/22 03:50:19;;;;;;;16.90;9.43;;;;;;;-1.00;68.15;96035.03;5068021;28;20227;-81
2022/03/22 03:52:46;;;;;;;25.13;9.73;;;;;;;-1.02;69.32;96032.59;5069593;28;20206;-81
2022/03/22 03:55:13;;;;;;;16.88;7.95;;;;;;;-1.04;68.84;96026.69;5069303;28;20219;-81
2022/03/22 03:57:41;;;;;;;17.60;8.05;;;;;;;-1.05;69.77;96034.88;5069335;28;20195;-81
2022/03/22 04:00:08;;;;;;;22.80;10.48;;;;;;;-0.69;72.40;96026.09;5069405;28;20203;-82
2022/03/22 04:02:35;;;;;;;13.75;8.23;;;;;;;-0.87;69.67;96034.88;5075904;28;20879;-80
2022/03/22 04:05:03;;;;;;;30.38;11.30;;;;;;;-0.92;69.64;96035.53;5077476;28;20728;-80
2022/03/22 04:07:30;;;;;;;28.08;10.80;;;;;;;-0.67;70.86;96032.00;5081377;28;20254;-80
2022/03/22 04:09:57;;;;;;;22.67;9.15;;;;;;;-0.65;70.07;96040.56;5084060;28;20209;-80
2022/03/22 04:12:24;;;;;;;16.92;8.65;;;;;;;-0.91;69.21;96037.16;5074062;28;20576;-80
2022/03/22 04:14:53;;;;;;;23.13;11.02;;;;;;;-0.88;69.68;96038.59;5088210;28;20225;-80
2022/03/22 04:17:22;;;;;;;25.38;10.82;;;;;;;-0.62;70.11;96032.97;5084814;28;20209;-80
2022/03/22 04:19:49;;;;;;;21.33;8.77;;;;;;;-0.50;69.17;96035.69;5063557;28;20257;-80
2022/03/22 04:22:18;;;;;;;22.10;9.52;;;;;;;-0.55;68.20;96032.91;5085395;28;20246;-80
2022/03/22 04:24:45;;;;;;;28.27;11.48;;;;;;;-0.52;67.09;96033.25;5076319;28;20198;-80
2022/03/22 04:32:44;;;;;;;25.20;12.82;;;;;;;-0.76;67.33;96042.94;5080147;28;20590;-77
2022/03/22 04:35:11;;;;;;;19.23;9.13;;;;;;;-0.59;65.43;96042.34;5084146;28;20219;-81
2022/03/22 04:37:40;;;;;;;29.70;10.65;;;;;;;-0.70;67.19;96025.28;5087907;28;20223;-81
2022/03/22 04:40:08;;;;;;;13.40;6.80;;;;;;;-0.63;65.43;96025.19;5084384;28;20202;-81
2022/03/22 04:42:36;;;;;;;19.35;7.57;;;;;;;-0.68;65.94;96038.38;5079312;28;20202;-81
2022/03/22 04:45:03;;;;;;;17.75;7.20;;;;;;;-0.47;64.85;96028.06;5083813;28;20604;-81
2022/03/22 04:47:30;;;;;;;19.90;8.27;;;;;;;-0.45;64.72;96041.97;5087572;28;20219;-81
2022/03/22 04:49:57;;;;;;;18.88;7.88;;;;;;;0.39;63.44;96029.53;5083690;28;20233;-82
2022/03/22 04:57:54;;;;;;;23.48;11.30;;;;;;;2.68;54.37;96006.38;5070733;28;20441;-79
2022/03/22 05:00:21;;;;;;;26.42;12.68;;;;;;;3.35;54.47;96016.97;5080224;28;20221;-83
2022/03/22 05:02:48;;;;;;;29.67;10.98;;;;;;;4.20;51.95;96002.97;5083988;28;20609;-79
2022/03/22 05:06:25;;;;;;;26.15;10.13;;;;;;;5.03;49.66;95999.88;5075781;28;20234;-79
2022/03/22 05:08:03;;;;;;;29.83;15.18;;;;;;;5.64;47.90;95996.44;5080742;28;20201;-78
2022/03/22 05:10:32;;;;;;;37.90;17.77;;;;;;;6.20;46.82;95999.34;5087311;28;20273;-78
2022/03/22 05:12:59;;;;;;;29.55;15.00;;;;;;;6.84;45.57;95992.66;5086229;28;20234;-78
2022/03/22 05:15:26;;;;;;;31.67;15.05;;;;;;;6.98;44.82;95994.53;5079921;28;20712;-78
2022/03/22 05:17:53;;;;;;;31.05;13.27;;;;;;;7.46;43.13;95989.63;5079749;28;20571;-81
2022/03/22 05:20:20;;;;;;;33.05;13.43;;;;;;;7.88;42.09;95996.47;5066898;28;20245;-79
2022/03/22 05:22:48;;;;;;;28.90;12.23;;;;;;;8.06;42.12;95990.47;5079076;28;20199;-80
2022/03/22 05:25:15;;;;;;;21.98;10.50;;;;;;;8.67;40.77;95985.50;5080375;28;20293;-80
2022/03/22 05:27:43;;;;;;;22.25;10.18;;;;;;;8.93;40.00;95986.09;5064431;28;20207;-80
2022/03/22 05:30:11;;;;;;;23.35;9.70;;;;;;;9.25;40.00;95983.66;5068102;28;20233;-80
2022/03/22 05:32:38;;;;;;;27.80;14.52;;;;;;;9.86;38.21;95980.25;5064707;28;20212;-80
2022/03/22 05:35:05;;;;;;;32.20;14.15;;;;;;;10.24;37.12;95981.16;5080728;28;20279;-81
2022/03/22 05:37:32;;;;;;;23.88;13.00;;;;;;;10.35;35.45;95979.09;5079535;28;20210;-80
2022/03/22 05:39:59;;;;;;;26.25;13.55;;;;;;;8.58;37.57;95986.38;5084941;28;20199;-80
2022/03/22 05:42:26;;;;;;;25.13;13.77;;;;;;;9.58;35.99;95979.22;5075053;28;20227;-80
2022/03/22 05:44:55;;;;;;;22.33;13.40;;;;;;;9.43;35.36;95981.31;5084058;28;20207;-80
2022/03/22 05:47:22;;;;;;;26.23;13.65;;;;;;;8.54;36.04;95984.25;5086091;28;20264;-80
2022/03/22 05:49:49;;;;;;;22.50;11.77;;;;;;;8.96;34.44;95985.53;5082190;28;20238;-82
2022/03/22 05:52:16;;;;;;;20.90;10.80;;;;;;;9.52;32.66;95971.47;5075885;28;20215;-80
2022/03/22 05:54:42;;;;;;;16.92;11.10;;;;;;;9.94;32.31;95971.50;5082728;28;20245;-78
2022/03/22 05:57:10;;;;;;;14.73;9.07;;;;;;;10.35;31.04;95965.56;5079532;28;20226;-79
2022/03/22 05:59:37;;;;;;;18.52;10.57;;;;;;;11.12;29.97;95965.94;5082225;28;20667;-79
2022/03/22 06:02:06;;;;;;;21.27;10.88;;;;;;;11.49;30.00;95958.78;5082678;28;20310;-79
2022/03/22 06:04:33;;;;;;;17.05;10.07;;;;;;;11.67;29.43;95952.47;5062352;28;20226;-83
2022/03/22 06:07:01;;;;;;;19.85;10.30;;;;;;;10.80;30.33;95964.03;5085982;28;20213;-80
2022/03/22 06:09:27;;;;;;;17.95;9.07;;;;;;;10.01;30.55;95970.31;5083125;28;20669;-80
2022/03/22 06:11:54;;;;;;;21.70;9.80;;;;;;;9.24;31.86;95982.03;5060212;28;20207;-79
2022/03/22 06:14:21;;;;;;;13.48;8.85;;;;;;;8.61;31.81;95970.41;5083587;28;20202;-79
2022/03/22 06:16:48;;;;;;;17.85;8.70;;;;;;;9.48;30.73;95970.41;5078951;28;20230;-79
2022/03/22 06:19:16;;;;;;;14.65;9.27;;;;;;;9.77;31.47;95973.88;5080581;28;20412;-79
2022/03/22 06:21:43;;;;;;;16.80;9.43;;;;;;;9.42;32.42;95972.41;5077161;28;20206;-79
2022/03/22 06:24:10;;;;;;;29.90;10.30;;;;;;;9.79;31.76;95966.28;5091764;28;20267;-80
2022/03/22 06:26:37;;;;;;;14.70;8.80;;;;;;;10.73;30.84;95962.81;5077883;28;20217;-80
2022/03/22 06:29:04;;;;;;;16.80;8.75;;;;;;;11.81;28.50;95945.16;5067308;28;20689;-79
2022/03/22 06:31:33;;;;;;;20.83;8.65;;;;;;;13.03;26.67;95942.38;5076738;28;20206;-80
2022/03/22 06:34:01;;;;;;;17.33;8.77;;;;;;;12.23;27.24;95951.31;5066060;28;20204;-84
2022/03/22 06:36:30;;;;;;;18.38;9.05;;;;;;;12.84;26.28;95953.47;5077742;28;20226;-80
2022/03/22 06:38:57;;;;;;;20.55;8.98;;;;;;;12.41;27.05;95953.09;5064886;28;20218;-80
2022/03/22 06:41:24;;;;;;;18.25;9.02;;;;;;;12.58;25.93;95953.22;5051725;28;20200;-80
2022/03/22 06:43:51;;;;;;;22.13;9.48;;;;;;;12.24;27.05;95952.94;5065523;28;20281;-80
2022/03/22 06:46:18;;;;;;;20.15;9.68;;;;;;;12.78;26.45;95947.31;5078788;28;20214;-83
2022/03/22 06:48:45;;;;;;;18.73;10.52;;;;;;;13.01;27.28;95939.94;5078298;28;20213;-79
2022/03/22 06:51:12;;;;;;;13.90;9.88;;;;;;;13.65;26.01;95947.84;5083515;28;20631;-80
2022/03/22 06:53:41;;;;;;;18.50;10.20;;;;;;;13.58;25.75;95952.94;5085128;28;20289;-78
2022/03/22 06:56:07;;;;;;;15.35;9.70;;;;;;;12.22;26.97;95955.16;5079489;28;20719;-76
2022/03/22 06:58:34;;;;;;;19.38;9.52;;;;;;;11.19;27.70;95955.53;5078053;28;20377;-80
2022/03/22 07:01:01;;;;;;;17.77;9.30;;;;;;;11.05;27.57;95949.28;5082799;28;20534;-79
2022/03/22 07:03:28;;;;;;;15.60;8.68;;;;;;;9.62;29.36;95972.16;5083493;28;20279;-76
2022/03/22 07:05:55;;;;;;;15.85;9.60;;;;;;;9.83;29.54;95967.31;5051165;28;20203;-78
2022/03/22 07:08:23;;;;;;;15.32;8.35;;;;;;;10.34;28.16;95950.41;5068411;28;20234;-79
2022/03/22 07:13:33;;;;;;;19.15;9.30;;;;;;;12.39;27.13;95950.69;5082318;28;20198;-78
2022/03/22 07:16:00;;;;;;;14.00;8.48;;;;;;;13.25;25.71;95947.81;5070518;28;20321;-78
2022/03/22 07:18:27;;;;;;;14.50;9.65;;;;;;;11.09;27.86;95954.88;5084227;28;20314;-78
2022/03/22 07:20:54;;;;;;;14.82;9.35;;;;;;;11.58;28.08;95952.38;5070990;28;20218;-79
2022/03/22 07:23:21;;;;;;;13.52;8.70;;;;;;;11.33;27.80;95948.22;5071072;28;20199;-79
2022/03/22 07:25:49;;;;;;;14.68;8.25;;;;;;;9.68;29.84;95969.41;5082917;28;20206;-79
2022/03/22 07:28:17;;;;;;;15.25;9.45;;;;;;;9.50;30.49;95962.84;5077605;28;20210;-78
2022/03/22 07:30:43;;;;;;;14.80;9.05;;;;;;;9.64;30.81;95958.34;5078402;28;20725;-79
2022/03/22 07:33:11;;;;;;;18.58;9.45;;;;;;;9.74;30.56;95960.91;5083973;28;20601;-79
2022/03/22 07:35:38;;;;;;;16.38;9.63;;;;;;;10.40;30.42;95943.81;5082904;28;20198;-78
2022/03/22 07:38:05;;;;;;;14.30;9.15;;;;;;;9.92;30.60;95948.53;5057805;28;20215;-78
2022/03/22 07:40:32;;;;;;;23.05;10.23;;;;;;;9.73;30.98;95945.78;5070393;28;20210;-79
2022/03/22 07:42:59;;;;;;;15.15;9.93;;;;;;;9.79;30.94;95944.63;5064178;28;20700;-78
2022/03/22 07:45:27;;;;;;;16.05;9.27;;;;;;;9.55;31.47;95944.66;5077813;28;20256;-78
2022/03/22 07:47:54;;;;;;;14.55;9.43;;;;;;;10.04;31.59;95939.97;5081515;28;20210;-79
2022/03/22 07:53:08;;;;;;;18.60;10.30;;;;;;;9.91;31.60;95939.59;5064551;28;20577;-79
2022/03/22 07:55:36;;;;;;;21.95;9.30;;;;;;;9.94;32.15;95936.31;5088997;28;20203;-80
2022/03/22 07:58:05;;;;;;;17.92;9.25;;;;;;;10.38;31.74;95934.38;5075279;28;20210;-79
2022/03/22 08:00:38;;;;;;;14.60;8.82;;;;;;;10.19;33.63;95937.09;5087787;28;20237;-79
2022/03/22 08:03:09;;;;;;;15.15;9.15;;;;;;;9.96;35.11;95938.72;5086613;28;20281;-79
2022/03/22 08:05:36;;;;;;;15.55;9.52;;;;;;;9.78;34.89;95948.44;5081326;28;20237;-79
2022/03/22 08:08:03;;;;;;;15.88;9.25;;;;;;;9.21;35.37;95946.63;5082210;28;20717;-81
2022/03/22 08:10:31;;;;;;;15.75;9.65;;;;;;;8.93;35.42;95950.16;5082282;28;20280;-79
2022/03/22 08:12:59;;;;;;;16.33;9.68;;;;;;;9.14;35.02;95944.28;5054364;28;20215;-79
2022/03/22 08:15:26;;;;;;;18.63;10.10;;;;;;;9.07;36.14;95943.81;5080011;28;20209;-78
2022/03/22 08:17:56;;;;;;;14.75;9.00;;;;;;;8.76;37.43;95939.75;5080885;28;20238;-77
2022/03/22 08:20:27;;;;;;;18.77;9.50;;;;;;;7.88;38.61;95956.00;5068277;28;20210;-77
2022/03/22 08:22:57;;;;;;;15.27;8.52;;;;;;;7.99;38.74;95949.47;5067755;28;20211;-76
2022/03/22 08:25:25;;;;;;;18.75;9.82;;;;;;;8.30;38.26;95944.69;5086223;28;20288;-78
2022/03/22 08:27:52;;;;;;;15.90;9.18;;;;;;;8.60;38.07;95943.69;5088024;28;20206;-77
2022/03/22 08:30:21;;;;;;;21.02;10.02;;;;;;;8.21;38.14;95947.16;5082294;28;20597;-77
2022/03/22 08:32:49;;;;;;;17.27;9.13;;;;;;;8.03;38.46;95950.53;5080314;28;20298;-78
2022/03/22 08:35:18;;;;;;;18.92;9.80;;;;;;;8.39;38.36;95943.84;5084490;28;20257;-78
2022/03/22 08:37:45;;;;;;;18.10;9.45;;;;;;;8.64;38.85;95950.13;5086425;28;20226;-78
2022/03/22 08:40:15;;;;;;;19.90;10.35;;;;;;;8.73;37.99;95956.56;5083406;28;20210;-79
2022/03/22 08:42:44;;;;;;;17.27;9.50;;;;;;;8.58;38.02;95946.69;5067088;28;20225;-79
2022/03/22 08:45:12;;;;;;;15.73;9.75;;;;;;;8.65;37.64;95946.34;5081828;28;20600;-79
2022/03/22 08:47:40;;;;;;;17.55;9.40;;;;;;;8.31;38.43;95952.53;5087156;28;20206;-79
2022/03/22 08:50:09;;;;;;;15.93;9.27;;;;;;;8.42;38.61;95948.69;5085863;28;20235;-78
2022/03/22 08:52:38;;;;;;;16.02;9.80;;;;;;;8.41;39.05;95946.25;5059933;28;20207;-79
2022/03/22 08:55:07;;;;;;;16.58;9.85;;;;;;;8.86;38.50;95947.81;5085832;28;20202;-78
2022/03/22 08:57:34;;;;;;;21.70;10.18;;;;;;;8.87;38.61;95941.31;5058590;28;20234;-78
2022/03/22 09:00:01;;;;;;;22.80;10.88;;;;;;;8.95;38.05;95935.28;5086443;28;20304;-78
2022/03/22 09:02:28;;;;;;;15.73;9.95;;;;;;;8.33;39.60;95939.59;5066217;28;20267;-78
2022/03/22 09:07:41;;;;;;;22.48;14.20;;;;;;;8.69;40.08;95925.78;5072190;28;20291;-79
2022/03/22 09:10:09;;;;;;;26.23;12.32;;;;;;;8.63;39.87;95926.91;5060154;28;20653;-77
2022/03/22 09:12:36;;;;;;;22.52;10.35;;;;;;;8.94;40.13;95928.25;5073322;28;20697;-77
2022/03/22 09:15:04;;;;;;;17.50;10.43;;;;;;;8.89;41.09;95914.78;5079812;28;20319;-77
2022/03/22 09:17:31;;;;;;;17.33;10.20;;;;;;;9.09;39.75;95924.59;5072044;28;20721;-77
2022/03/22 09:19:58;;;;;;;17.13;9.43;;;;;;;9.32;39.90;95917.59;5052707;28;20207;-77
2022/03/22 09:22:25;;;;;;;21.20;10.25;;;;;;;9.36;40.07;95918.63;5063851;28;20213;-78
2022/03/22 09:24:54;;;;;;;19.95;11.30;;;;;;;9.40;39.12;95925.09;5077038;28;20281;-78
2022/03/22 09:27:21;;;;;;;22.02;10.40;;;;;;;9.62;38.49;95917.25;5070398;28;20290;-80
2022/03/22 09:29:47;;;;;;;19.80;10.38;;;;;;;9.60;39.47;95924.84;5084059;28;20215;-79
2022/03/22 09:32:15;;;;;;;15.90;9.20;;;;;;;9.57;41.14;95911.88;5084597;28;20206;-77
2022/03/22 09:34:43;;;;;;;17.95;9.00;;;;;;;9.39;42.63;95901.84;5079677;28;20202;-77
2022/03/22 09:37:10;;;;;;;13.40;8.40;;;;;;;9.36;42.75;95900.50;5081587;28;20230;-75
2022/03/22 09:39:37;;;;;;;23.88;9.43;;;;;;;9.69;42.76;95896.06;5091623;28;20275;-78
2022/03/22 09:42:07;;;;;;;16.35;9.10;;;;;;;9.41;42.97;95899.66;5067340;28;20223;-78
2022/03/22 09:44:35;;;;;;;15.80;8.40;;;;;;;8.77;44.08;95901.66;5086128;28;20735;-80
2022/03/22 09:47:04;;;;;;;21.48;9.80;;;;;;;8.62;44.85;95893.69;5086562;28;20230;-78
2022/03/22 09:49:32;;;;;;;17.52;9.02;;;;;;;8.84;44.79;95890.53;5079707;28;20217;-78
2022/03/22 09:52:02;;;;;;;17.50;8.93;;;;;;;8.93;44.49;95899.63;5079308;28;20203;-79
2022/03/22 09:54:29;;;;;;;16.30;9.20;;;;;;;9.50;44.20;95889.78;5084647;28;20257;-78
2022/03/22 09:56:56;;;;;;;17.08;9.38;;;;;;;9.57;43.65;95892.94;5084646;28;20609;-78
2022/03/22 09:59:25;;;;;;;14.32;7.93;;;;;;;9.57;43.56;95892.94;5052372;28;20214;-78
2022/03/22 10:01:53;;;;;;;18.52;7.90;;;;;;;8.99;44.59;95895.78;5070179;28;20277;-82
2022/03/22 10:04:20;;;;;;;15.48;8.27;;;;;;;8.84;45.15;95902.16;5083099;28;20231;-77
2022/03/22 10:06:54;;;;;;;16.42;8.50;;;;;;;9.03;45.08;95883.28;5083491;28;20561;-79
2022/03/22 10:09:29;;;;;;;16.85;8.07;;;;;;;9.49;44.81;95863.84;5061390;28;20282;-77
2022/03/22 10:11:56;;;;;;;13.13;7.20;;;;;;;9.15;45.03;95867.50;5077169;28;20288;-78
2022/03/22 10:14:34;;;;;;;16.13;8.07;;;;;;;9.39;44.97;95863.97;5080529;28;20662;-77
2022/03/22 10:17:09;;;;;;;15.00;8.02;;;;;;;9.37;44.67;95850.75;5085767;28;20249;-79
2022/03/22 10:19:42;;;;;;;17.38;7.40;;;;;;;10.08;43.33;95849.75;5072898;28;20199;-79
2022/03/22 10:22:10;;;;;;;12.80;7.00;;;;;;;10.16;42.76;95845.56;5083114;28;20290;-79
2022/03/22 10:24:43;;;;;;;13.00;7.18;;;;;;;9.81;43.62;95853.13;5073397;28;20298;-79
2022/03/22 10:27:20;;;;;;;14.13;6.47;;;;;;;9.52;43.82;95863.28;5082512;28;20234;-80
2022/03/22 10:29:48;;;;;;;11.95;7.00;;;;;;;9.10;45.20;95867.56;5079861;28;20582;-77
2022/03/22 10:32:16;;;;;;;17.65;7.20;;;;;;;9.39;44.80;95850.44;5051388;28;20204;-80
2022/03/22 10:34:43;;;;;;;13.77;6.93;;;;;;;9.35;44.98;95849.41;5056906;28;20666;-78
2022/03/22 10:37:10;;;;;;;14.95;7.32;;;;;;;9.75;44.19;95835.34;5083697;28;20731;-77
2022/03/22 10:39:41;;;;;;;12.18;7.07;;;;;;;10.26;43.55;95829.19;5077895;28;20206;-77
2022/03/22 10:42:09;;;;;;;15.02;7.25;;;;;;;10.16;43.39;95830.13;5065342;28;20653;-77
2022/03/22 10:44:37;;;;;;;12.23;7.07;;;;;;;10.05;43.70;95825.97;5065065;28;20669;-76
2022/03/22 10:47:07;;;;;;;12.93;7.25;;;;;;;9.88;44.56;95829.19;5078142;28;20340;-77
2022/03/22 10:49:35;;;;;;;8.88;5.75;;;;;;;9.68;45.06;95812.47;5083638;28;20733;-77
2022/03/22 10:52:01;;;;;;;8.25;5.38;;;;;;;9.30;45.16;95836.75;5085036;28;20202;-81
2022/03/22 10:54:28;;;;;;;19.65;7.03;;;;;;;9.49;45.75;95804.34;5080036;28;20210;-78
2022/03/22 10:56:58;;;;;;;12.40;6.32;;;;;;;9.51;44.88;95802.16;5075912;28;20223;-77
2022/03/22 10:59:28;;;;;;;9.93;5.22;;;;;;;9.40;45.43;95814.19;5079214;28;20229;-82
2022/03/22 11:01:56;;;;;;;10.48;6.47;;;;;;;9.64;45.10;95809.53;5060536;28;20289;-80
2022/03/22 11:04:25;;;;;;;12.85;7.03;;;;;;;9.82;44.39;95792.50;5060008;28;20222;-76
2022/03/22 11:06:55;;;;;;;14.93;6.78;;;;;;;10.30;42.96;95781.47;5070786;28;20218;-75
2022/03/22 11:09:24;;;;;;;12.70;6.88;;;;;;;9.68;43.29;95801.66;5081164;28;20280;-79
2022/03/22 11:11:51;;;;;;;8.77;6.13;;;;;;;9.81;43.64;95774.66;5060586;28;20206;-81
2022/03/22 11:14:20;;;;;;;11.73;5.75;;;;;;;10.15;43.22;95784.38;5081572;28;20683;-82
2022/03/22 11:16:50;;;;;;;8.63;4.85;;;;;;;9.95;42.32;95790.94;5077801;28;20221;-75
2022/03/22 11:19:18;;;;;;;10.10;6.03;;;;;;;10.04;42.51;95769.41;5080405;28;20276;-79
2022/03/22 11:21:47;;;;;;;10.63;6.13;;;;;;;10.03;42.81;95760.50;5084150;28;20615;-80
2022/03/22 11:24:15;;;;;;;18.27;6.78;;;;;;;10.23;42.88;95776.44;5070016;28;20754;-79
2022/03/22 11:26:43;;;;;;;11.15;6.63;;;;;;;10.49;41.85;95757.84;5083942;28;20676;-76
2022/03/22 11:29:12;;;;;;;12.50;6.70;;;;;;;10.63;41.18;95750.53;5083197;28;20237;-79
2022/03/22 11:31:39;;;;;;;11.82;6.07;;;;;;;10.79;41.07;95750.22;5071105;28;20214;-74
2022/03/22 11:34:09;;;;;;;20.52;7.25;;;;;;;10.75;40.63;95730.25;5070936;28;20203;-79
2022/03/22 11:36:43;;;;;;;12.40;6.25;;;;;;;11.04;39.94;95728.84;5070695;28;20230;-75
2022/03/22 11:39:17;;;;;;;11.32;6.13;;;;;;;10.45;40.08;95756.00;5082058;28;20305;-80
2022/03/22 11:44:38;;;;;;;14.38;4.93;;;;;;;10.58;39.83;95723.50;5083559;28;20218;-82
2022/03/22 11:47:08;;;;;;;15.68;6.47;;;;;;;10.76;38.61;95712.88;5084437;28;20230;-79
2022/03/22 11:49:52;;;;;;;11.57;5.85;;;;;;;10.99;38.50;95701.00;5078339;28;20272;-80
2022/03/22 11:52:19;;;;;;;15.80;6.57;;;;;;;10.88;38.49;95710.47;5074201;28;20210;-83
2022/03/22 11:54:59;;;;;;;14.20;6.45;;;;;;;11.14;38.26;95697.97;5081110;28;20206;-82
2022/03/22 11:57:27;;;;;;;13.05;6.65;;;;;;;11.22;38.09;95697.25;5077511;28;20217;-78
2022/03/22 11:59:55;;;;;;;10.20;5.75;;;;;;;10.96;37.87;95685.34;5078605;28;20222;-78
2022/03/22 12:02:28;;;;;;;12.77;6.03;;;;;;;10.69;37.87;95703.25;5083564;28;20589;-80